»·PEaware :: UAL178 KPSP-KSAN

UAL178 :: KPSP-KSAN

FLIGHT INFORMATION

Flight Status: Arrived
Operator:
United Airlines
More flights by this operator :: More flights under this callsign
Pilot: David H. (5760)
Aircraft: DEHAVILLAND DASH 8 400
(DH8D)
More flights by this aircraft type
Origin: KPSP Palm Springs Intl
United States
Destination: KSAN San Diego Intl-Lindbergh
United States
More flights between these airports :: More routes between these airports
Route: +CATH1 PSP TRM V514 MZB
File this flight plan on PilotEdge
Remarks:
Altitude:
(Current/Filed)
16,000ft
Speed:
(Current/Filed)
350kts
Departed: 12-May-18 04:53 PM
Arrived: 12-May-18 05:25 PM
Distance/Time
Traveled:
74nm/0:32
Distance/Time
To Go:
Arrived

Flight Plot

Page will automatically refresh every two minutes.


Map Options




Map Legend


Flown Route
Filed Route
Departure Airport
Arrival Airport
Navaid (VOR, NDB)
Fix

Horizontal Profiles

Position Reports

Time Latitude Longitude Heading Altitude Ground
Speed
12-May-18 16:16 33.823921 -116.506497 189 484ft 0kts
12-May-18 16:17 33.823921 -116.506497 189 484ft 0kts
12-May-18 16:18 33.823921 -116.506497 189 484ft 0kts
12-May-18 16:19 33.823921 -116.506497 189 484ft 0kts
12-May-18 16:20 33.823921 -116.506497 189 484ft 0kts
12-May-18 16:21 33.823921 -116.506497 189 484ft 0kts
12-May-18 16:22 33.823921 -116.506497 189 484ft 0kts
12-May-18 16:23 33.823921 -116.506497 189 484ft 0kts
12-May-18 16:24 33.823921 -116.506497 189 484ft 0kts
12-May-18 16:25 33.823921 -116.506497 189 484ft 0kts
12-May-18 16:26 33.823921 -116.506497 189 484ft 0kts
12-May-18 16:27 33.823921 -116.506497 189 484ft 0kts
12-May-18 16:28 33.823921 -116.506497 189 484ft 0kts
12-May-18 16:29 33.823921 -116.506497 189 484ft 0kts
12-May-18 16:30 33.823921 -116.506497 189 484ft 0kts
12-May-18 16:31 33.823921 -116.506497 189 484ft 0kts
12-May-18 16:32 33.823921 -116.506497 189 484ft 0kts
12-May-18 16:33 33.823921 -116.506497 189 484ft 0kts
12-May-18 16:34 33.823921 -116.506497 189 484ft 0kts
12-May-18 16:35 33.823921 -116.506497 189 484ft 0kts
12-May-18 16:36 33.823921 -116.506497 189 484ft 0kts
12-May-18 16:37 33.823921 -116.506497 189 484ft 0kts
12-May-18 16:38 33.823921 -116.506497 189 484ft 0kts
12-May-18 16:39 33.823921 -116.506497 189 484ft 0kts
12-May-18 16:40 33.823921 -116.506497 189 484ft 0kts
12-May-18 16:41 33.823921 -116.506497 189 484ft 0kts
12-May-18 16:42 33.824022 -116.506475 192 484ft 2kts
12-May-18 16:43 33.824346 -116.506322 212 484ft 0kts
12-May-18 16:44 33.824346 -116.506322 212 484ft 0kts
12-May-18 16:45 33.824346 -116.506322 212 484ft 0kts
12-May-18 16:46 33.824346 -116.506322 212 484ft 0kts
12-May-18 16:47 33.824346 -116.506322 212 484ft 0kts
12-May-18 16:48 33.824352 -116.506318 212 484ft 0kts
12-May-18 16:49 33.823282 -116.504844 122 484ft 13kts
12-May-18 16:50 33.819503 -116.500672 143 484ft 15kts
12-May-18 16:51 33.818881 -116.500109 143 484ft 2kts
12-May-18 16:52 33.818908 -116.498216 7 484ft 15kts
12-May-18 16:53 33.833043 -116.510622 320 1194ft 113kts
12-May-18 16:54 33.863417 -116.535432 322 2918ft 172kts
12-May-18 16:55 33.905907 -116.571184 322 5371ft 192kts
12-May-18 16:56 33.952986 -116.594885 18 7804ft 200kts
12-May-18 16:57 33.961200 -116.539848 131 9700ft 209kts
12-May-18 16:58 33.917091 -116.486264 135 10669ft 265kts
12-May-18 16:59 33.865447 -116.419200 122 11803ft 286kts
12-May-18 17:00 33.830266 -116.335979 118 13441ft 297kts
12-May-18 17:01 33.793730 -116.249427 120 15122ft 308kts
12-May-18 17:02 33.725796 -116.199140 167 15961ft 319kts
12-May-18 17:03 33.643006 -116.170871 184 15959ft 316kts
12-May-18 17:04 33.570195 -116.211111 216 15965ft 306kts
12-May-18 17:05 33.503641 -116.269148 219 15972ft 308kts
12-May-18 17:06 33.438143 -116.326832 218 15985ft 307kts
12-May-18 17:07 33.371537 -116.385008 218 15171ft 317kts
12-May-18 17:08 33.300771 -116.446781 218 14283ft 321kts
12-May-18 17:09 33.229464 -116.509048 217 13399ft 326kts
12-May-18 17:10 33.157705 -116.570998 215 12292ft 331kts
12-May-18 17:11 33.068857 -116.594005 185 10999ft 324kts
12-May-18 17:12 32.982963 -116.602246 185 9968ft 285kts
12-May-18 17:13 32.907232 -116.619739 202 8768ft 275kts
12-May-18 17:14 32.836886 -116.652410 202 7264ft 261kts
12-May-18 17:15 32.772003 -116.682000 202 5784ft 248kts
12-May-18 17:16 32.709030 -116.711267 202 4990ft 247kts
12-May-18 17:17 32.648229 -116.744003 223 4954ft 245kts
12-May-18 17:18 32.639414 -116.814683 284 4978ft 245kts
12-May-18 17:19 32.657855 -116.886983 284 4971ft 216kts
12-May-18 17:20 32.674802 -116.954571 285 4072ft 213kts
12-May-18 17:21 32.690431 -117.016038 285 2743ft 176kts
12-May-18 17:22 32.704542 -117.071221 285 1864ft 168kts
12-May-18 17:23 32.714858 -117.111317 284 1493ft 147kts
12-May-18 17:24 32.725904 -117.158567 274 627ft 146kts
12-May-18 17:25 32.734191 -117.192353 286 22ft 35kts
12-May-18 17:26 32.734127 -117.195399 253 22ft 0kts

Navigation Log

Ident Type
1. KPSP Airport
2. PSP Navaid
3. TRM Navaid
4. WARNE Fix
5. JLI Navaid
6. CANNO Fix
7. BARET Fix
8. RYAHH Fix
9. HAILE Fix
10. MZB Navaid
11. KSAN Airport